createdAt,value
2022-08-19T00:01:55.343Z,34.83
2022-08-19T00:04:26.175Z,35.20
2022-08-19T00:06:53.634Z,44.40
2022-08-19T00:09:22.385Z,51.43
2022-08-19T00:11:49.921Z,42.03
2022-08-19T00:14:18.205Z,37.97
2022-08-19T00:16:47.547Z,38.27
2022-08-19T00:19:15.161Z,35.60
2022-08-19T00:21:42.635Z,39.83
2022-08-19T00:24:11.840Z,33.87
2022-08-19T00:26:39.610Z,41.03
2022-08-19T00:29:08.339Z,36.87
2022-08-19T00:31:35.485Z,38.93
2022-08-19T00:34:02.700Z,33.70
2022-08-19T00:36:30.067Z,38.03
2022-08-19T00:38:57.315Z,42.87
2022-08-19T00:41:25.958Z,37.80
2022-08-19T00:44:08.856Z,36.00
2022-08-19T00:46:37.944Z,36.43
2022-08-19T00:49:18.446Z,43.07
2022-08-19T00:51:50.698Z,42.83
2022-08-19T00:54:18.322Z,38.20
2022-08-19T00:56:46.627Z,40.07
2022-08-19T00:59:15.922Z,44.83
2022-08-19T01:02:04.453Z,39.30
2022-08-19T01:04:31.661Z,40.63
2022-08-19T01:07:00.145Z,43.47
2022-08-19T01:09:27.648Z,35.27
2022-08-19T01:11:55.351Z,42.47
2022-08-19T01:14:22.422Z,41.47
2022-08-19T01:16:49.975Z,43.57
2022-08-19T01:19:26.008Z,46.63
2022-08-19T01:22:14.393Z,44.43
2022-08-19T01:24:49.537Z,44.73
2022-08-19T01:27:17.947Z,39.03
2022-08-19T01:29:46.185Z,45.10
2022-08-19T01:32:33.206Z,40.50
2022-08-19T01:35:04.436Z,42.17
2022-08-19T01:37:42.402Z,41.77
2022-08-19T01:40:11.044Z,43.13
2022-08-19T01:42:38.078Z,39.70
2022-08-19T01:45:07.243Z,41.03
2022-08-19T01:47:37.275Z,37.10
2022-08-19T01:50:06.048Z,37.20
2022-08-19T01:52:33.127Z,36.30
2022-08-19T01:55:00.375Z,44.37
2022-08-19T01:57:27.835Z,50.03
2022-08-19T01:59:54.946Z,44.77
2022-08-19T02:02:21.996Z,46.67
2022-08-19T02:04:49.325Z,41.83
2022-08-19T02:07:16.434Z,66.07
2022-08-19T02:09:43.506Z,49.37
2022-08-19T02:12:10.761Z,68.13
2022-08-19T02:14:38.140Z,65.50
2022-08-19T02:17:05.500Z,48.80
2022-08-19T02:19:33.592Z,49.57
2022-08-19T02:22:01.243Z,49.37
2022-08-19T02:24:28.957Z,57.13
2022-08-19T02:26:56.204Z,54.03
2022-08-19T02:29:23.311Z,47.90
2022-08-19T02:31:50.387Z,51.63
2022-08-19T02:34:17.982Z,75.37
2022-08-19T02:36:44.973Z,57.70
2022-08-19T02:39:19.576Z,51.30
2022-08-19T02:41:46.728Z,49.20
2022-08-19T02:44:26.607Z,61.80
2022-08-19T02:46:58.520Z,50.53
2022-08-19T02:49:25.536Z,48.37
2022-08-19T02:51:52.532Z,47.87
2022-08-19T02:54:20.205Z,56.47
2022-08-19T02:56:47.602Z,47.93
2022-08-19T02:59:14.774Z,47.33
2022-08-19T03:01:43.314Z,48.57
2022-08-19T03:04:15.408Z,50.00
2022-08-19T03:06:46.881Z,48.30
2022-08-19T03:09:14.394Z,50.47
2022-08-19T03:11:42.009Z,37.23
2022-08-19T03:14:10.215Z,44.97
2022-08-19T03:16:44.632Z,54.27
2022-08-19T03:19:11.830Z,53.60
2022-08-19T03:21:38.929Z,77.83
2022-08-19T03:24:09.147Z,72.80
2022-08-19T03:26:41.172Z,68.00
2022-08-19T03:29:09.590Z,56.20
2022-08-19T03:31:43.282Z,66.40
2022-08-19T03:34:14.806Z,63.50
2022-08-19T03:36:42.063Z,52.30
2022-08-19T03:39:10.587Z,78.40
2022-08-19T03:41:45.680Z,52.40
2022-08-19T03:44:17.899Z,55.80
2022-08-19T03:46:50.801Z,53.93
2022-08-19T03:49:19.716Z,56.53
2022-08-19T03:51:48.268Z,45.97
2022-08-19T03:54:17.201Z,28.20
2022-08-19T03:56:46.568Z,20.97
2022-08-19T03:59:17.702Z,23.60
2022-08-19T04:01:45.034Z,24.90
2022-08-19T04:04:12.108Z,21.27
2022-08-19T04:06:40.512Z,24.37
2022-08-19T04:09:11.750Z,16.87
2022-08-19T04:11:46.789Z,22.20
2022-08-19T04:14:16.448Z,20.43
2022-08-19T04:16:45.576Z,16.50
2022-08-19T04:19:16.911Z,16.37
2022-08-19T04:21:46.180Z,15.50
2022-08-19T04:24:14.435Z,21.80
2022-08-19T04:26:41.543Z,19.57
2022-08-19T04:29:12.733Z,19.97
2022-08-19T04:31:42.030Z,22.53
2022-08-19T04:34:14.055Z,29.83
2022-08-19T04:36:42.732Z,29.13
2022-08-19T04:39:20.235Z,35.00
2022-08-19T04:42:06.184Z,31.67
2022-08-19T04:44:35.896Z,36.53
2022-08-19T04:47:10.884Z,28.67
2022-08-19T04:49:38.776Z,22.73
2022-08-19T04:52:05.847Z,20.37
2022-08-19T04:54:37.861Z,19.70
2022-08-19T04:57:11.360Z,22.53
2022-08-19T04:59:40.064Z,26.10
2022-08-19T05:02:09.507Z,22.73
2022-08-19T05:04:40.267Z,25.63
2022-08-19T05:07:08.848Z,30.03
2022-08-19T05:09:56.753Z,26.13
2022-08-19T05:12:28.707Z,17.77
2022-08-19T05:14:58.039Z,22.87
2022-08-19T05:17:28.438Z,19.63
2022-08-19T05:20:16.575Z,20.53
2022-08-19T05:22:45.699Z,20.13
2022-08-19T05:25:20.059Z,22.90
2022-08-19T05:27:47.893Z,26.00
2022-08-19T05:30:15.984Z,25.57
2022-08-19T05:32:43.185Z,16.80
2022-08-19T05:35:10.744Z,16.77
2022-08-19T05:37:39.573Z,18.07
2022-08-19T05:40:07.384Z,17.30
2022-08-19T05:42:34.547Z,18.03
2022-08-19T05:45:02.279Z,16.67
2022-08-19T05:47:29.466Z,20.47
2022-08-19T05:49:56.521Z,18.17
2022-08-19T05:52:25.787Z,19.33
2022-08-19T05:54:56.122Z,16.70
2022-08-19T05:57:24.204Z,15.67
2022-08-19T05:59:57.668Z,13.83
2022-08-19T06:02:29.888Z,13.60
2022-08-19T06:04:56.996Z,14.50
2022-08-19T06:07:24.377Z,13.40
2022-08-19T06:09:59.725Z,13.33
2022-08-19T06:12:35.350Z,16.37
2022-08-19T06:15:07.898Z,13.13
2022-08-19T06:17:36.244Z,13.10
2022-08-19T06:20:14.441Z,14.10
2022-08-19T06:22:46.910Z,16.40
2022-08-19T06:25:15.815Z,13.80
2022-08-19T06:30:30.669Z,23.43
2022-08-19T06:32:57.765Z,17.20
2022-08-19T06:35:24.864Z,15.70
2022-08-19T06:37:52.033Z,13.70
2022-08-19T06:40:19.223Z,15.23
2022-08-19T06:42:49.500Z,16.80
2022-08-19T06:45:24.486Z,16.20
2022-08-19T06:47:55.381Z,15.77
2022-08-19T06:50:25.776Z,16.57
2022-08-19T06:52:53.559Z,15.60
2022-08-19T06:55:20.946Z,14.83
2022-08-19T06:57:49.273Z,14.70
2022-08-19T07:00:17.093Z,18.33
2022-08-19T07:02:49.575Z,16.33
2022-08-19T07:05:20.407Z,14.20
2022-08-19T07:07:47.559Z,19.10
2022-08-19T07:10:15.068Z,15.73
2022-08-19T07:12:42.309Z,14.83
2022-08-19T07:15:11.922Z,15.50
2022-08-19T07:17:41.757Z,15.30
2022-08-19T07:20:10.743Z,14.23
2022-08-19T07:22:39.827Z,13.63
2022-08-19T07:25:09.456Z,16.70
2022-08-19T07:27:39.470Z,18.53
2022-08-19T07:30:08.038Z,14.97
2022-08-19T07:32:39.823Z,16.57
2022-08-19T07:35:07.891Z,15.07
2022-08-19T07:37:36.589Z,17.93
2022-08-19T07:40:06.522Z,15.23
2022-08-19T07:42:33.687Z,17.60
2022-08-19T07:45:00.682Z,17.60
2022-08-19T07:47:50.318Z,17.07
2022-08-19T07:50:19.024Z,16.80
2022-08-19T07:52:48.894Z,17.47
2022-08-19T07:55:41.080Z,16.43
2022-08-19T07:58:06.149Z,18.83
2022-08-19T08:00:33.531Z,19.10
2022-08-19T08:03:00.695Z,18.40
2022-08-19T08:05:46.502Z,19.87
2022-08-19T08:08:32.453Z,22.00
2022-08-19T08:11:01.131Z,18.80
2022-08-19T08:13:28.932Z,20.63
2022-08-19T08:15:56.910Z,18.63
2022-08-19T08:18:27.470Z,20.40
2022-08-19T08:20:56.054Z,20.77
2022-08-19T08:23:24.785Z,19.80
2022-08-19T08:25:53.550Z,23.37
2022-08-19T08:28:20.652Z,23.47
2022-08-19T08:30:50.673Z,22.60
2022-08-19T08:33:30.172Z,22.73
2022-08-19T08:36:05.284Z,25.93
2022-08-19T08:38:38.920Z,25.10
2022-08-19T08:41:35.330Z,24.47
2022-08-19T08:44:05.538Z,26.60
2022-08-19T08:46:46.872Z,27.53
2022-08-19T08:49:45.215Z,28.03
2022-08-19T08:52:22.659Z,30.93
2022-08-19T08:54:55.285Z,27.30
2022-08-19T08:57:40.713Z,29.87
2022-08-19T09:00:15.919Z,31.47
2022-08-19T09:02:44.935Z,31.83
2022-08-19T09:05:22.202Z,31.37
2022-08-19T09:08:14.848Z,30.23
2022-08-19T09:10:55.053Z,35.10
2022-08-19T09:13:56.490Z,30.97
2022-08-19T09:16:28.282Z,34.00
2022-08-19T09:19:03.259Z,32.77
2022-08-19T09:21:35.613Z,32.03
2022-08-19T09:24:04.665Z,35.43
2022-08-19T09:26:47.185Z,30.07
2022-08-19T09:29:22.511Z,36.80
2022-08-19T09:31:50.995Z,33.70
2022-08-19T09:34:20.815Z,34.43
2022-08-19T09:36:56.412Z,35.00
2022-08-19T09:39:23.753Z,37.63
2022-08-19T09:41:51.284Z,35.80
2022-08-19T09:44:19.298Z,35.13
2022-08-19T09:46:48.251Z,38.47
2022-08-19T09:49:18.357Z,36.23
2022-08-19T09:51:51.209Z,32.87
2022-08-19T09:54:22.431Z,34.93
2022-08-19T09:56:51.427Z,41.83
2022-08-19T09:59:19.057Z,40.23
2022-08-19T10:01:46.135Z,39.57
2022-08-19T10:04:20.093Z,41.97
2022-08-19T10:06:48.709Z,32.43
2022-08-19T10:09:33.806Z,38.83
2022-08-19T10:12:02.452Z,43.13
2022-08-19T10:14:29.987Z,40.43
2022-08-19T10:16:57.587Z,37.73
2022-08-19T10:19:26.940Z,36.77
2022-08-19T10:22:00.481Z,34.10
2022-08-19T10:24:29.079Z,36.53
2022-08-19T10:26:58.814Z,41.63
2022-08-19T10:29:33.105Z,38.67
2022-08-19T10:32:09.717Z,37.37
2022-08-19T10:34:48.269Z,43.23
2022-08-19T10:37:22.861Z,38.30
2022-08-19T10:39:56.169Z,36.77
2022-08-19T10:42:23.327Z,41.13
2022-08-19T10:44:51.932Z,40.83
2022-08-19T10:47:25.434Z,35.73
2022-08-19T10:50:14.985Z,38.67
2022-08-19T10:52:49.773Z,37.33
2022-08-19T10:55:39.315Z,42.70
2022-08-19T10:58:12.517Z,40.73
2022-08-19T11:00:39.824Z,40.60
2022-08-19T11:03:06.851Z,42.63
2022-08-19T11:05:39.848Z,44.63
2022-08-19T11:08:23.150Z,43.37
2022-08-19T11:10:54.777Z,44.30
2022-08-19T11:13:23.073Z,36.87
2022-08-19T11:16:05.328Z,39.30
2022-08-19T11:18:45.136Z,38.57
2022-08-19T11:21:24.523Z,34.47
2022-08-19T11:23:54.257Z,39.30
2022-08-19T11:26:22.346Z,36.57
2022-08-19T11:28:52.344Z,43.40
2022-08-19T11:31:21.682Z,35.17
2022-08-19T11:33:54.758Z,40.80
2022-08-19T11:36:23.126Z,35.20
2022-08-19T11:38:51.254Z,38.77
2022-08-19T11:41:20.329Z,36.40
2022-08-19T11:43:47.477Z,36.33
2022-08-19T11:46:15.971Z,39.70
2022-08-19T11:48:43.352Z,30.57
2022-08-19T11:58:07.428Z,34.67
2022-08-19T12:01:00.357Z,35.40
2022-08-19T12:03:34.961Z,33.80
2022-08-19T12:06:07.320Z,31.77
2022-08-19T12:08:34.909Z,41.37
2022-08-19T12:11:02.455Z,31.10
2022-08-19T12:13:31.310Z,30.60
2022-08-19T12:15:59.275Z,35.27
2022-08-19T12:18:26.778Z,32.53
2022-08-19T12:20:57.959Z,32.20
2022-08-19T12:23:24.976Z,31.40
2022-08-19T12:25:52.745Z,32.20
2022-08-19T12:28:21.567Z,32.37
2022-08-19T12:30:51.176Z,35.90
2022-08-19T12:33:19.245Z,35.03
2022-08-19T12:35:47.513Z,30.87
2022-08-19T12:38:15.665Z,33.30
2022-08-19T12:40:46.067Z,30.33
2022-08-19T12:43:13.234Z,33.17
2022-08-19T12:45:40.270Z,35.13
2022-08-19T12:48:33.781Z,35.07
2022-08-19T12:50:57.773Z,32.43
2022-08-19T12:53:24.950Z,32.13
2022-08-19T12:56:00.805Z,36.93
2022-08-19T12:58:29.348Z,33.13
2022-08-19T13:00:56.656Z,32.17
2022-08-19T13:03:29.968Z,32.33
2022-08-19T13:05:57.711Z,31.40
2022-08-19T13:08:24.861Z,32.13
2022-08-19T13:10:51.966Z,33.77
2022-08-19T13:13:18.992Z,35.30
2022-08-19T13:15:46.332Z,32.97
2022-08-19T13:18:14.014Z,35.37
2022-08-19T13:20:41.758Z,31.43
2022-08-19T13:23:10.296Z,30.83
2022-08-19T13:25:37.877Z,29.90
2022-08-19T13:28:07.452Z,30.43
2022-08-19T13:30:53.305Z,30.17
2022-08-19T13:33:20.728Z,30.30
2022-08-19T13:35:59.614Z,33.03
2022-08-19T13:38:26.858Z,31.50
2022-08-19T13:40:56.223Z,27.63
2022-08-19T13:43:26.768Z,30.43
2022-08-19T13:45:57.615Z,26.13
2022-08-19T13:48:27.754Z,29.30
2022-08-19T13:50:55.310Z,26.17
2022-08-19T13:53:22.551Z,28.03
2022-08-19T13:55:51.487Z,30.73
2022-08-19T13:58:18.645Z,27.23
2022-08-19T14:00:47.277Z,27.33
2022-08-19T14:03:14.826Z,28.13
2022-08-19T14:05:42.102Z,27.13
2022-08-19T14:08:10.362Z,28.00
2022-08-19T14:10:37.502Z,31.87
2022-08-19T14:13:05.282Z,28.57
2022-08-19T14:15:32.920Z,28.73
2022-08-19T14:18:00.361Z,25.23
2022-08-19T14:20:27.865Z,28.13
2022-08-19T14:22:55.774Z,27.83
2022-08-19T14:25:24.592Z,24.13
2022-08-19T14:27:52.494Z,22.67
2022-08-19T14:30:28.573Z,32.23
2022-08-19T14:32:57.342Z,26.07
2022-08-19T14:35:24.772Z,25.07
2022-08-19T14:37:56.843Z,23.07
2022-08-19T14:40:29.018Z,23.80
2022-08-19T14:43:00.258Z,19.00
2022-08-19T14:45:31.307Z,23.47
2022-08-19T14:48:01.014Z,19.27
2022-08-19T14:50:28.716Z,18.33
2022-08-19T14:53:09.101Z,15.10
2022-08-19T14:55:43.675Z,13.57
2022-08-19T14:58:28.456Z,12.00
2022-08-19T15:00:58.339Z,15.70
2022-08-19T15:03:25.496Z,12.63
2022-08-19T15:05:52.641Z,11.97
2022-08-19T15:08:19.733Z,10.53
2022-08-19T15:10:48.763Z,10.33
2022-08-19T15:13:15.989Z,12.23
2022-08-19T15:15:43.074Z,10.50
2022-08-19T15:18:10.389Z,10.27
2022-08-19T15:20:37.416Z,9.13
2022-08-19T15:23:04.746Z,9.73
2022-08-19T15:25:31.790Z,9.23
2022-08-19T15:27:58.826Z,8.90
2022-08-19T15:30:28.106Z,9.90
2022-08-19T15:32:57.337Z,10.40
2022-08-19T15:35:24.973Z,9.50
2022-08-19T15:37:55.196Z,11.10
2022-08-19T15:40:34.587Z,12.17
2022-08-19T15:43:01.649Z,14.07
2022-08-19T15:45:32.798Z,13.10
2022-08-19T15:48:04.412Z,14.73
2022-08-19T15:50:32.310Z,12.83
2022-08-19T15:53:05.484Z,14.93
2022-08-19T15:55:35.099Z,13.07
2022-08-19T15:58:29.340Z,14.07
2022-08-19T16:01:21.430Z,14.17
2022-08-19T16:04:14.186Z,13.57
2022-08-19T16:06:54.502Z,13.90
2022-08-19T16:09:27.454Z,13.57
2022-08-19T16:12:04.314Z,13.90
2022-08-19T16:14:34.958Z,15.00
2022-08-19T16:17:02.443Z,13.47
2022-08-19T16:19:29.543Z,14.93
2022-08-19T16:21:57.263Z,13.37
2022-08-19T16:24:27.808Z,12.43
2022-08-19T16:26:56.150Z,13.90
2022-08-19T16:29:34.468Z,15.10
2022-08-19T16:32:10.387Z,16.77
2022-08-19T16:34:39.301Z,16.63
2022-08-19T16:37:07.317Z,15.10
2022-08-19T16:39:34.894Z,15.90
2022-08-19T16:42:02.443Z,15.67
2022-08-19T16:44:30.237Z,16.57
2022-08-19T16:46:59.763Z,17.67
2022-08-19T16:49:53.884Z,16.97
2022-08-19T16:52:19.866Z,21.47
2022-08-19T16:54:47.634Z,17.90
2022-08-19T16:57:15.131Z,17.80
2022-08-19T16:59:48.684Z,18.87
2022-08-19T17:02:22.554Z,20.10
2022-08-19T17:04:57.591Z,20.10
2022-08-19T17:07:27.235Z,20.30
2022-08-19T17:09:55.164Z,19.83
2022-08-19T17:12:30.521Z,19.40
2022-08-19T17:15:00.750Z,19.60
2022-08-19T17:17:29.271Z,20.50
2022-08-19T17:19:57.157Z,20.23
2022-08-19T17:22:24.595Z,21.97
2022-08-19T17:24:51.953Z,18.90
2022-08-19T17:27:23.723Z,20.83
2022-08-19T17:29:51.132Z,21.37
2022-08-19T17:32:24.772Z,24.03
2022-08-19T17:34:54.329Z,21.17
2022-08-19T17:37:21.999Z,22.27
2022-08-19T17:39:49.969Z,22.10
2022-08-19T17:42:17.424Z,20.07
2022-08-19T17:44:50.690Z,23.83
2022-08-19T17:47:19.598Z,21.67
2022-08-19T17:49:47.207Z,22.40
2022-08-19T17:52:14.572Z,21.43
2022-08-19T17:54:41.976Z,22.30
2022-08-19T17:57:09.694Z,20.90
2022-08-19T17:59:40.034Z,22.50
2022-08-19T18:02:10.039Z,20.83
2022-08-19T18:04:38.462Z,24.47
2022-08-19T18:07:06.345Z,24.13
2022-08-19T18:09:42.459Z,22.93
2022-08-19T18:12:14.061Z,23.90
2022-08-19T18:14:42.192Z,25.27
2022-08-19T18:17:10.893Z,23.43
2022-08-19T18:19:41.640Z,26.27
2022-08-19T18:22:30.701Z,28.47
2022-08-19T18:24:58.795Z,26.80
2022-08-19T18:27:27.803Z,31.77
2022-08-19T18:29:59.610Z,32.37
2022-08-19T18:32:34.053Z,32.70
2022-08-19T18:35:04.782Z,28.60
2022-08-19T18:37:31.891Z,35.03
2022-08-19T18:40:17.614Z,37.77
2022-08-19T18:43:04.892Z,37.40
2022-08-19T18:45:50.873Z,33.90
2022-08-19T18:48:36.268Z,41.57
2022-08-19T18:51:03.896Z,35.27
2022-08-19T18:53:35.441Z,38.63
2022-08-19T18:56:02.855Z,36.23
2022-08-19T18:58:35.059Z,31.87
2022-08-19T19:01:21.166Z,37.10
2022-08-19T19:03:52.930Z,36.77
2022-08-19T19:06:23.489Z,36.43
2022-08-19T19:08:52.013Z,35.90
2022-08-19T19:11:29.345Z,37.37
2022-08-19T19:14:04.302Z,37.87
2022-08-19T19:16:32.534Z,40.23
2022-08-19T19:18:59.611Z,40.50
2022-08-19T19:21:28.350Z,41.43
2022-08-19T19:23:57.018Z,38.87
2022-08-19T19:26:24.371Z,41.63
2022-08-19T19:28:51.737Z,41.50
2022-08-19T19:31:26.612Z,37.43
2022-08-19T19:33:56.007Z,40.57
2022-08-19T19:36:24.032Z,39.60
2022-08-19T19:38:51.311Z,39.40
2022-08-19T19:41:25.105Z,40.93
2022-08-19T19:44:29.876Z,40.20
2022-08-19T19:46:46.246Z,35.93
2022-08-19T19:49:14.223Z,35.60
2022-08-19T19:51:43.478Z,35.10
2022-08-19T19:54:15.150Z,38.10
2022-08-19T19:56:48.676Z,39.63
2022-08-19T19:59:16.342Z,35.23
2022-08-19T20:01:46.216Z,34.57
2022-08-19T20:04:15.240Z,34.73
2022-08-19T20:06:43.327Z,31.73
2022-08-19T20:09:10.947Z,31.40
2022-08-19T20:11:41.457Z,32.43
2022-08-19T20:14:35.754Z,32.27
2022-08-19T20:17:03.213Z,29.17
2022-08-19T20:19:37.152Z,33.03
2022-08-19T20:22:06.520Z,33.80
2022-08-19T20:24:35.674Z,34.50
2022-08-19T20:27:04.347Z,35.10
2022-08-19T20:29:39.585Z,38.47
2022-08-19T20:32:10.251Z,34.17
2022-08-19T20:34:37.608Z,36.83
2022-08-19T20:37:04.910Z,36.33
2022-08-19T20:39:32.141Z,29.83
2022-08-19T20:42:00.866Z,31.20
2022-08-19T20:44:27.926Z,33.23
2022-08-19T20:46:58.386Z,31.53
2022-08-19T20:49:27.873Z,32.43
2022-08-19T20:51:58.613Z,33.63
2022-08-19T20:54:27.016Z,32.43
2022-08-19T20:56:54.499Z,29.63
2022-08-19T20:59:22.629Z,30.10
2022-08-19T21:01:51.920Z,30.13
2022-08-19T21:04:21.345Z,29.90
2022-08-19T21:06:49.545Z,29.53
2022-08-19T21:09:17.272Z,30.37
2022-08-19T21:11:44.392Z,32.57
2022-08-19T21:14:12.005Z,32.70
2022-08-19T21:16:39.295Z,30.93
2022-08-19T21:19:06.312Z,32.47
2022-08-19T21:21:33.442Z,31.90
2022-08-19T21:24:01.491Z,29.40
2022-08-19T21:26:28.848Z,31.37
2022-08-19T21:28:56.260Z,31.87
2022-08-19T21:31:23.295Z,34.03
2022-08-19T21:33:50.325Z,28.50
2022-08-19T21:36:17.616Z,30.30
2022-08-19T21:38:44.654Z,31.07
2022-08-19T21:41:11.748Z,32.27
2022-08-19T21:43:38.958Z,33.63
2022-08-19T21:46:06.989Z,31.97
2022-08-19T21:48:34.123Z,31.07
2022-08-19T21:51:01.207Z,30.80
2022-08-19T21:53:31.348Z,28.00
2022-08-19T21:55:58.800Z,29.23
2022-08-19T21:58:28.331Z,30.87
2022-08-19T22:01:05.638Z,29.00
2022-08-19T22:03:33.770Z,29.20
2022-08-19T22:06:00.768Z,34.03
2022-08-19T22:08:27.883Z,28.17
2022-08-19T22:10:55.213Z,32.10
2022-08-19T22:13:22.235Z,31.27
2022-08-19T22:15:52.940Z,39.83
2022-08-19T22:18:20.011Z,31.67
2022-08-19T22:20:47.890Z,32.97
2022-08-19T22:23:14.973Z,33.80
2022-08-19T22:25:46.674Z,30.73
2022-08-19T22:28:19.166Z,32.20
2022-08-19T22:30:56.221Z,36.17
2022-08-19T22:33:25.723Z,29.03
2022-08-19T22:35:53.490Z,34.73
2022-08-19T22:38:20.557Z,31.67
2022-08-19T22:40:49.185Z,30.10
2022-08-19T22:43:22.755Z,36.13
2022-08-19T22:45:52.082Z,33.53
2022-08-19T22:48:23.491Z,32.60
2022-08-19T22:51:09.720Z,35.23
2022-08-19T22:53:40.198Z,31.43
2022-08-19T22:56:13.168Z,35.40
2022-08-19T22:58:42.559Z,32.90
2022-08-19T23:01:14.633Z,32.70
2022-08-19T23:03:56.398Z,31.13
2022-08-19T23:06:23.416Z,31.27
2022-08-19T23:08:58.451Z,34.20
2022-08-19T23:11:25.489Z,31.37
2022-08-19T23:13:52.554Z,33.23
2022-08-19T23:16:19.709Z,32.87
2022-08-19T23:18:48.168Z,31.43
2022-08-19T23:21:16.569Z,34.53
2022-08-19T23:23:44.217Z,32.03
2022-08-19T23:26:11.662Z,30.40
2022-08-19T23:28:57.955Z,31.60
2022-08-19T23:31:26.720Z,30.07
2022-08-19T23:33:53.733Z,32.47
2022-08-19T23:36:21.242Z,29.33
2022-08-19T23:38:50.607Z,29.73
2022-08-19T23:41:19.720Z,32.07
2022-08-19T23:43:46.891Z,29.97
2022-08-19T23:46:27.598Z,30.90
2022-08-19T23:48:56.179Z,29.93
2022-08-19T23:51:23.622Z,31.90
2022-08-19T23:53:50.678Z,33.93
2022-08-19T23:56:17.757Z,28.63
2022-08-19T23:58:45.579Z,30.93
